Fort Hood, Texas
Current Conditions -  °F | °C
As of 5:56 AM on Wednesday 26 Nov 2014 (Local Time) from KHLR Reporting Station
Clear Clear  
Wind Chill:   Ceiling: Unl
Heat Index:   Visibility: 10mi
Dew Point: -3°   Wind: 6mph
Humidity: 46%   Direction: 200°SSW
Pressure: 30.12"   Gusts: NA
Location:  31.2151°N, 97.7405°W
Report Text: KHLR 261156Z AUTO 20005KT 10SM CLR 08/M03 A3012 RMK AO2 SLP233 T00831028 10100 20056 51005 $
Loading
Personal Weather Stations






























Interactive Weather Map New forecast layout! Learn more

10-Day Weather Forecast

Advertisements
Track Severe Weather on mobile